Time;durP1;ratioP1;P1;durP2;ratioP2;P2;SDS_P1;SDS_P2;PMS_P1;PMS_P2;Temp;Humidity;BMP_temperature;BMP_pressure;BME280_temperature;BME280_humidity;BME280_pressure;Samples;Min_cycle;Max_cycle;Signal;HPM_P1;HPM_P2
2023/06/12 00:02:06;;;;;;;7.80;2.70;;;;;;;25.56;58.73;99124.69;4976633;28;20035;-73
2023/06/12 00:04:33;;;;;;;8.32;3.50;;;;;;;25.55;58.53;99131.84;4968577;28;20057;-74
2023/06/12 00:06:59;;;;;;;5.80;2.97;;;;;;;25.53;58.71;99135.59;4957311;29;20027;-74
2023/06/12 00:09:24;;;;;;;7.25;2.60;;;;;;;25.52;58.66;99128.56;4956928;29;20027;-75
2023/06/12 00:11:50;;;;;;;6.82;3.10;;;;;;;25.53;58.61;99132.91;4956763;29;20019;-74
2023/06/12 00:14:15;;;;;;;6.55;3.13;;;;;;;25.52;58.65;99139.25;4957105;29;20059;-74
2023/06/12 00:16:41;;;;;;;8.10;2.88;;;;;;;25.53;58.52;99138.25;4957144;29;20027;-74
2023/06/12 00:19:06;;;;;;;5.43;2.78;;;;;;;25.51;59.12;99134.88;4956910;29;20122;-74
2023/06/12 00:21:31;;;;;;;7.00;2.97;;;;;;;25.52;58.81;99141.91;4956937;29;20027;-75
2023/06/12 00:23:57;;;;;;;7.32;3.00;;;;;;;25.52;58.93;99136.56;4956848;29;20093;-74
2023/06/12 00:26:22;;;;;;;5.80;3.28;;;;;;;25.51;59.08;99134.88;4956604;29;20028;-74
2023/06/12 00:28:48;;;;;;;6.63;3.22;;;;;;;25.49;59.26;99132.34;4956455;28;20051;-75
2023/06/12 00:31:14;;;;;;;5.85;2.92;;;;;;;25.49;59.06;99132.34;4939536;29;20031;-74
2023/06/12 00:33:40;;;;;;;7.75;3.42;;;;;;;25.47;59.45;99124.44;4956878;29;20027;-74
2023/06/12 00:36:06;;;;;;;7.75;3.88;;;;;;;25.48;58.97;99126.13;4956477;29;20135;-74
2023/06/12 00:38:34;;;;;;;7.90;3.00;;;;;;;25.48;59.45;99130.66;4956575;29;20547;-75
2023/06/12 00:41:00;;;;;;;8.52;3.50;;;;;;;25.48;59.43;99119.97;4956406;29;20057;-74
2023/06/12 00:43:25;;;;;;;6.40;3.45;;;;;;;25.47;59.23;99126.28;4956098;29;20556;-75
2023/06/12 00:45:51;;;;;;;7.05;3.13;;;;;;;25.45;59.60;99126.41;4939059;29;20042;-74
2023/06/12 00:48:17;;;;;;;5.43;3.25;;;;;;;25.46;59.50;99130.78;4956419;29;20059;-74
2023/06/12 00:50:44;;;;;;;7.70;3.10;;;;;;;25.48;59.14;99131.47;4956435;29;20024;-74
2023/06/12 00:53:10;;;;;;;6.63;3.25;;;;;;;25.47;59.45;99140.47;4955990;28;20053;-74
2023/06/12 00:55:35;;;;;;;4.65;2.83;;;;;;;25.47;59.39;99151.16;4955706;29;20105;-73
2023/06/12 00:58:02;;;;;;;6.78;3.10;;;;;;;25.46;59.42;99149.47;4956326;29;20484;-74
2023/06/12 01:00:28;;;;;;;6.82;3.45;;;;;;;25.44;59.53;99148.75;4956317;29;20027;-74
2023/06/12 01:02:56;;;;;;;5.70;3.00;;;;;;;25.45;59.49;99147.78;4956311;29;20035;-74
2023/06/12 01:05:32;;;;;;;7.68;3.55;;;;;;;25.44;59.85;99151.44;4956041;29;20038;-74
2023/06/12 01:08:16;;;;;;;8.45;3.72;;;;;;;25.42;59.76;99141.84;4956044;29;20123;-74
2023/06/12 01:10:54;;;;;;;7.00;3.00;;;;;;;25.44;59.56;99139.91;4955814;29;20050;-74
2023/06/12 01:13:20;;;;;;;6.82;2.83;;;;;;;25.42;59.63;99140.00;4956163;29;20035;-74
2023/06/12 01:15:46;;;;;;;7.28;3.10;;;;;;;25.41;59.85;99130.31;4956033;29;20016;-74
2023/06/12 01:18:11;;;;;;;6.82;3.10;;;;;;;25.40;59.41;99117.94;4955863;29;20027;-73
2023/06/12 01:20:37;;;;;;;7.28;2.70;;;;;;;25.39;58.91;99102.91;4955836;29;20063;-75
2023/06/12 01:23:31;;;;;;;4.45;2.75;;;;;;;25.33;59.11;99111.44;4955958;29;20034;-74
2023/06/12 01:26:27;;;;;;;5.78;2.40;;;;;;;25.30;59.16;99117.03;4955392;29;20045;-74
2023/06/12 01:29:11;;;;;;;4.85;2.45;;;;;;;25.26;59.22;99120.94;4955481;29;20055;-74
2023/06/12 01:32:01;;;;;;;5.72;2.55;;;;;;;25.22;59.19;99120.34;4955570;28;20525;-74
2023/06/12 01:34:34;;;;;;;5.88;2.38;;;;;;;25.20;59.15;99116.97;4955789;29;20023;-74
2023/06/12 01:37:17;;;;;;;7.57;2.67;;;;;;;25.19;59.17;99108.09;4955598;29;20491;-74
2023/06/12 01:39:54;;;;;;;4.43;2.20;;;;;;;25.16;59.16;99099.50;4954998;29;20098;-74
2023/06/12 01:42:19;;;;;;;8.07;2.60;;;;;;;25.15;59.17;99104.00;4955540;28;20035;-73
2023/06/12 01:44:45;;;;;;;4.20;2.10;;;;;;;25.15;59.20;99109.34;4955451;28;20039;-74
2023/06/12 01:47:10;;;;;;;5.05;2.33;;;;;;;25.12;59.16;99106.94;4955524;28;20399;-74
2023/06/12 01:49:36;;;;;;;5.05;2.28;;;;;;;25.12;59.12;99104.25;4955347;28;20041;-74
2023/06/12 01:52:01;;;;;;;5.65;2.92;;;;;;;25.11;59.56;99110.56;4955434;28;20057;-74
2023/06/12 01:54:27;;;;;;;7.18;3.08;;;;;;;25.09;59.44;99104.53;4955011;28;20110;-74
2023/06/12 01:56:53;;;;;;;6.72;3.00;;;;;;;25.05;60.07;99097.75;4955363;28;20027;-74
2023/06/12 01:59:18;;;;;;;5.47;3.17;;;;;;;25.03;59.93;99094.38;4955029;28;20094;-74
2023/06/12 02:01:43;;;;;;;9.90;3.40;;;;;;;25.03;60.12;99089.03;4955177;29;20113;-74
2023/06/12 02:04:11;;;;;;;7.60;3.05;;;;;;;24.98;60.22;99081.41;4954814;29;20027;-74
2023/06/12 02:06:36;;;;;;;6.95;3.17;;;;;;;24.97;60.05;99087.72;4954010;28;20090;-74
2023/06/12 02:09:02;;;;;;;6.82;3.00;;;;;;;24.93;60.33;99079.13;4954895;29;20027;-74
2023/06/12 02:11:27;;;;;;;5.35;2.55;;;;;;;24.94;60.30;99074.66;4954993;29;20082;-74
2023/06/12 02:13:53;;;;;;;7.45;3.35;;;;;;;24.92;60.19;99076.56;4954984;29;20027;-74
2023/06/12 02:16:21;;;;;;;5.38;2.70;;;;;;;24.93;60.10;99068.44;4954870;29;20102;-75
2023/06/12 02:18:47;;;;;;;5.03;2.85;;;;;;;24.90;60.14;99068.69;4954522;29;20031;-74
2023/06/12 02:21:12;;;;;;;7.35;2.65;;;;;;;24.88;59.98;99065.31;4954907;28;20027;-74
2023/06/12 02:23:37;;;;;;;5.97;2.72;;;;;;;24.89;59.85;99055.50;4954444;28;20181;-74
2023/06/12 02:26:03;;;;;;;5.18;2.70;;;;;;;24.87;59.95;99050.28;4954760;28;20026;-74
2023/06/12 02:28:28;;;;;;;6.25;2.60;;;;;;;24.85;60.05;99049.56;4954512;28;20055;-74
2023/06/12 02:30:53;;;;;;;7.57;2.90;;;;;;;24.84;59.74;99047.84;4954582;28;20080;-74
2023/06/12 02:33:19;;;;;;;6.35;3.20;;;;;;;24.79;60.15;99050.88;4954638;29;20027;-74
2023/06/12 02:35:44;;;;;;;6.18;2.53;;;;;;;24.79;59.83;99050.88;4954836;29;20167;-74
2023/06/12 02:38:10;;;;;;;5.05;2.60;;;;;;;24.80;60.00;99047.25;4954062;29;20027;-74
2023/06/12 02:40:35;;;;;;;5.05;2.40;;;;;;;24.81;59.69;99042.78;4954361;29;20415;-74
2023/06/12 02:43:00;;;;;;;6.22;2.50;;;;;;;24.78;59.90;99051.00;4954530;29;20030;-74
2023/06/12 02:45:26;;;;;;;5.97;2.45;;;;;;;24.76;59.60;99043.16;4954427;29;20394;-74
2023/06/12 02:47:51;;;;;;;4.65;2.20;;;;;;;24.77;59.73;99044.00;4953953;29;20027;-74
2023/06/12 02:50:17;;;;;;;5.63;2.40;;;;;;;24.77;59.54;99047.50;4954478;29;20539;-74
2023/06/12 02:52:43;;;;;;;3.53;1.90;;;;;;;24.74;59.67;99042.41;4953951;29;20031;-73
2023/06/12 02:55:09;;;;;;;5.18;2.10;;;;;;;24.72;59.42;99041.72;4954329;29;20024;-74
2023/06/12 02:57:34;;;;;;;5.82;2.28;;;;;;;24.68;59.41;99037.59;4954171;29;20495;-74
2023/06/12 03:00:00;;;;;;;5.18;2.40;;;;;;;24.67;59.54;99042.09;4954219;29;20031;-74
2023/06/12 03:02:25;;;;;;;5.53;2.40;;;;;;;24.70;59.44;99041.00;4954182;29;20027;-74
2023/06/12 03:04:52;;;;;;;4.65;2.00;;;;;;;24.70;59.58;99056.16;4953938;28;20027;-74
2023/06/12 03:07:18;;;;;;;4.30;2.10;;;;;;;24.67;59.74;99060.78;4953823;28;20114;-74
2023/06/12 03:09:44;;;;;;;4.90;2.30;;;;;;;24.64;59.61;99053.03;4954288;28;20098;-74
2023/06/12 03:12:10;;;;;;;5.78;2.50;;;;;;;24.70;59.34;99061.50;4953980;28;20038;-74
2023/06/12 03:14:36;;;;;;;5.43;2.20;;;;;;;24.64;59.54;99063.69;4954154;29;20561;-74
2023/06/12 03:17:02;;;;;;;5.32;2.20;;;;;;;24.70;59.85;99072.16;4953544;29;20507;-73
2023/06/12 03:19:28;;;;;;;4.95;1.90;;;;;;;24.67;59.52;99074.13;4954165;29;20070;-74
2023/06/12 03:21:53;;;;;;;4.05;2.25;;;;;;;24.69;59.71;99071.31;4953540;29;20019;-74
2023/06/12 03:24:20;;;;;;;4.28;2.00;;;;;;;24.65;59.67;99065.38;4954080;28;20082;-74
2023/06/12 03:26:46;;;;;;;3.78;1.88;;;;;;;24.69;59.64;99070.47;4954159;28;20660;-74
2023/06/12 03:29:11;;;;;;;5.53;2.55;;;;;;;24.67;59.55;99068.78;4953788;28;20049;-74
2023/06/12 03:31:37;;;;;;;4.15;2.22;;;;;;;24.64;59.82;99068.16;4953982;28;20166;-74
2023/06/12 03:34:03;;;;;;;4.22;1.90;;;;;;;24.66;59.74;99066.25;4953841;29;20114;-74
2023/06/12 03:36:28;;;;;;;3.60;2.03;;;;;;;24.66;59.78;99072.41;4953555;29;20023;-74
2023/06/12 03:38:54;;;;;;;5.20;2.10;;;;;;;24.64;59.95;99065.50;4953935;29;20031;-74
2023/06/12 03:41:21;;;;;;;5.20;2.17;;;;;;;24.64;59.77;99066.34;4953742;29;20051;-74
2023/06/12 03:43:46;;;;;;;4.07;2.28;;;;;;;24.64;59.76;99074.34;4953925;29;20035;-74
2023/06/12 03:46:12;;;;;;;7.40;2.60;;;;;;;24.65;59.69;99076.06;4953453;29;20538;-74
2023/06/12 03:48:37;;;;;;;3.45;2.03;;;;;;;24.65;59.87;99076.06;4953575;29;20023;-75
2023/06/12 03:51:02;;;;;;;5.28;2.25;;;;;;;24.63;59.69;99077.16;4938997;29;20376;-74
2023/06/12 03:53:28;;;;;;;5.75;2.28;;;;;;;24.66;59.89;99083.06;4953869;28;20039;-74
2023/06/12 03:55:53;;;;;;;6.13;2.03;;;;;;;24.62;59.97;99087.00;4953880;28;20027;-73
2023/06/12 03:58:19;;;;;;;3.95;2.13;;;;;;;24.65;59.58;99089.38;4953769;28;20483;-74
2023/06/12 04:00:47;;;;;;;3.42;1.90;;;;;;;24.63;59.88;99099.34;4953483;28;20152;-74
2023/06/12 04:03:20;;;;;;;6.53;3.03;;;;;;;24.64;59.55;99097.50;4953315;29;20077;-74
2023/06/12 04:05:49;;;;;;;5.40;2.20;;;;;;;24.69;59.98;99107.81;4953697;29;20043;-74
2023/06/12 04:08:14;;;;;;;4.10;2.30;;;;;;;24.65;60.05;99108.06;4953913;29;20078;-74
2023/06/12 04:10:40;;;;;;;4.07;2.05;;;;;;;24.66;60.18;99106.25;4953615;29;20023;-74
2023/06/12 04:13:06;;;;;;;5.53;2.58;;;;;;;24.66;59.93;99107.09;4952348;29;20459;-75
2023/06/12 04:15:31;;;;;;;6.05;2.15;;;;;;;24.66;60.03;99107.09;4953184;29;20395;-75
2023/06/12 04:18:00;;;;;;;4.75;2.35;;;;;;;24.68;59.84;99104.28;4953116;28;20027;-74
2023/06/12 04:20:26;;;;;;;5.35;2.08;;;;;;;24.69;60.04;99099.81;4951774;28;20027;-75
2023/06/12 04:22:52;;;;;;;4.75;2.35;;;;;;;24.71;59.63;99111.19;4953322;29;20496;-74
2023/06/12 04:25:18;;;;;;;6.10;2.65;;;;;;;24.66;60.03;99108.91;4953244;29;20034;-74
2023/06/12 04:27:44;;;;;;;6.00;2.17;;;;;;;24.66;59.80;99108.91;4953423;29;20039;-74
2023/06/12 04:30:10;;;;;;;5.47;2.28;;;;;;;24.70;59.82;99106.84;4955209;28;20055;-74
2023/06/12 04:32:35;;;;;;;6.88;2.30;;;;;;;24.66;59.65;99088.41;4956200;28;20158;-74
2023/06/12 04:35:02;;;;;;;4.15;2.25;;;;;;;24.66;59.89;99093.75;4956844;29;20059;-75
2023/06/12 04:37:28;;;;;;;5.07;2.00;;;;;;;24.65;59.66;99091.22;4956519;29;20027;-74
2023/06/12 04:39:55;;;;;;;4.50;2.28;;;;;;;24.67;59.68;99091.94;4956644;29;20027;-74
2023/06/12 04:42:23;;;;;;;5.32;2.30;;;;;;;24.60;59.51;99094.25;4956577;29;20511;-74
2023/06/12 04:44:48;;;;;;;5.28;2.20;;;;;;;24.60;59.41;99098.75;4956700;28;20488;-74
2023/06/12 04:47:15;;;;;;;6.63;2.05;;;;;;;24.59;59.55;99095.22;4956347;28;20035;-74
2023/06/12 04:49:43;;;;;;;4.15;2.00;;;;;;;24.60;59.51;99099.59;4956645;28;20090;-74
2023/06/12 04:52:08;;;;;;;7.95;2.20;;;;;;;24.59;59.52;99092.56;4956352;28;20027;-74
2023/06/12 04:54:38;;;;;;;4.75;2.13;;;;;;;24.56;59.53;99100.84;4958150;28;20373;-74
2023/06/12 04:57:16;;;;;;;10.90;4.10;;;;;;;24.54;59.67;99102.75;4962989;28;20462;-74
2023/06/12 04:59:44;;;;;;;7.15;2.67;;;;;;;24.49;59.57;99107.63;4962230;28;20502;-74
2023/06/12 05:02:10;;;;;;;7.90;3.25;;;;;;;24.50;59.80;99114.66;4956847;28;20032;-74
2023/06/12 05:04:37;;;;;;;8.88;2.90;;;;;;;24.48;59.73;99106.78;4955675;29;20521;-74
2023/06/12 05:07:08;;;;;;;5.68;2.55;;;;;;;24.50;59.70;99104.00;4955915;29;20102;-74
2023/06/12 05:09:33;;;;;;;6.05;2.50;;;;;;;24.50;59.84;99109.34;4956059;29;20491;-75
2023/06/12 05:12:00;;;;;;;8.45;2.67;;;;;;;24.49;59.88;99108.47;4955739;29;20029;-75
2023/06/12 05:14:27;;;;;;;8.20;2.70;;;;;;;24.50;59.78;99109.34;4955899;29;20026;-75
2023/06/12 05:16:53;;;;;;;3.83;2.00;;;;;;;24.52;59.95;99115.38;4937929;29;20114;-74
2023/06/12 05:19:19;;;;;;;4.72;2.20;;;;;;;24.51;60.21;99117.19;4955657;29;20119;-74
2023/06/12 05:21:44;;;;;;;5.60;2.35;;;;;;;24.53;59.94;99120.59;4955743;29;20042;-74
2023/06/12 05:24:10;;;;;;;3.83;2.00;;;;;;;24.52;59.91;99123.38;4955365;29;20435;-73
2023/06/12 05:26:35;;;;;;;6.65;2.20;;;;;;;24.52;60.10;99118.06;4955359;29;20050;-73
2023/06/12 05:29:01;;;;;;;6.20;2.47;;;;;;;24.54;60.14;99116.09;4955649;29;20070;-74
2023/06/12 05:31:28;;;;;;;5.88;2.20;;;;;;;24.53;60.18;99122.41;4954943;28;20422;-74
2023/06/12 05:33:54;;;;;;;5.65;2.38;;;;;;;24.53;60.03;99125.06;4955414;28;20407;-73
2023/06/12 05:36:19;;;;;;;5.40;2.33;;;;;;;24.49;60.23;99120.94;4962331;28;20034;-74
2023/06/12 05:38:46;;;;;;;4.65;2.22;;;;;;;24.51;60.03;99133.19;4969759;28;20126;-74
2023/06/12 05:41:15;;;;;;;6.38;2.50;;;;;;;24.51;60.03;99135.84;4959753;28;20534;-74
2023/06/12 05:43:44;;;;;;;5.95;2.00;;;;;;;24.53;60.31;99135.75;4956835;28;20031;-74
2023/06/12 05:46:10;;;;;;;8.07;2.25;;;;;;;24.56;59.99;99137.31;4968045;28;20035;-74
2023/06/12 05:48:36;;;;;;;7.75;2.40;;;;;;;24.53;60.48;99141.06;4964299;28;20023;-74
2023/06/12 05:51:02;;;;;;;7.53;2.70;;;;;;;24.57;60.70;99137.19;4953439;28;20055;-74
2023/06/12 05:53:28;;;;;;;7.03;2.70;;;;;;;24.56;60.89;99131.97;4962953;28;20313;-75
2023/06/12 05:55:53;;;;;;;6.78;2.72;;;;;;;24.57;60.63;99131.88;4942104;28;20033;-75
2023/06/12 05:58:20;;;;;;;6.43;3.05;;;;;;;24.59;60.59;99129.91;4967063;28;20086;-74
2023/06/12 06:00:45;;;;;;;6.75;2.90;;;;;;;24.57;60.62;99134.53;4964681;28;20023;-74
2023/06/12 06:03:10;;;;;;;7.13;3.20;;;;;;;24.58;60.24;99130.88;4974058;28;20076;-75
2023/06/12 06:05:36;;;;;;;5.30;2.53;;;;;;;24.57;60.51;99134.53;4957971;28;20031;-75
2023/06/12 06:08:02;;;;;;;6.80;2.83;;;;;;;24.59;60.52;99131.75;4969296;28;20518;-75
2023/06/12 06:10:27;;;;;;;7.53;3.15;;;;;;;24.59;60.43;99129.91;4962616;28;20038;-74
2023/06/12 06:12:53;;;;;;;5.85;3.20;;;;;;;24.57;60.56;99131.88;4961806;28;20034;-74
2023/06/12 06:15:18;;;;;;;8.20;3.25;;;;;;;24.54;60.59;99142.75;4969291;28;20038;-74
2023/06/12 06:17:44;;;;;;;12.27;4.95;;;;;;;24.55;60.78;99139.13;4957621;28;20415;-74
2023/06/12 06:20:11;;;;;;;12.63;5.35;;;;;;;24.55;60.54;99141.78;4967771;28;20034;-74
2023/06/12 06:22:37;;;;;;;10.50;4.85;;;;;;;24.55;60.55;99139.13;4963771;28;20101;-74
2023/06/12 06:25:03;;;;;;;6.88;3.42;;;;;;;24.54;60.43;99126.75;4960775;28;20710;-74
2023/06/12 06:27:29;;;;;;;6.03;2.80;;;;;;;24.51;60.80;99132.38;4969918;28;20174;-74
2023/06/12 06:29:55;;;;;;;7.00;3.03;;;;;;;24.52;60.67;99137.59;4940293;28;20458;-74
2023/06/12 06:32:21;;;;;;;15.80;5.78;;;;;;;24.51;60.63;99138.53;4965452;28;20026;-75
2023/06/12 06:34:46;;;;;;;29.80;13.45;;;;;;;24.52;60.47;99136.72;4962553;28;20448;-74
2023/06/12 06:37:12;;;;;;;19.65;7.53;;;;;;;24.52;60.88;99140.25;4968275;28;20090;-74
2023/06/12 06:39:39;;;;;;;12.70;6.35;;;;;;;24.53;60.58;99135.75;4957301;28;20053;-74
2023/06/12 06:42:05;;;;;;;8.23;3.83;;;;;;;24.54;60.60;99127.63;4963316;28;20058;-74
2023/06/12 06:44:30;;;;;;;9.00;3.53;;;;;;;24.55;61.06;99128.44;4962209;28;20483;-74
2023/06/12 06:46:55;;;;;;;8.55;3.40;;;;;;;24.55;60.85;99125.78;4963364;28;20424;-75
2023/06/12 06:49:22;;;;;;;10.18;3.42;;;;;;;24.56;60.95;99129.31;4954312;29;20106;-74
2023/06/12 06:51:48;;;;;;;8.70;3.55;;;;;;;24.56;61.03;99140.84;4953809;28;20031;-74
2023/06/12 06:54:13;;;;;;;8.18;3.35;;;;;;;24.57;61.00;99142.53;4954346;29;20083;-75
2023/06/12 06:56:39;;;;;;;6.93;3.97;;;;;;;24.58;61.15;99138.03;5052633;23;20553;-75
2023/06/12 06:59:04;;;;;;;6.53;3.28;;;;;;;24.55;60.84;99139.13;4954302;29;20506;-76
2023/06/12 07:01:29;;;;;;;7.78;3.90;;;;;;;24.55;61.17;99139.13;4954053;29;20027;-76
2023/06/12 07:03:55;;;;;;;6.60;3.50;;;;;;;24.56;61.02;99139.97;4954065;29;20039;-76
2023/06/12 07:06:20;;;;;;;8.02;3.67;;;;;;;24.55;60.99;99136.44;4954272;29;20030;-76
2023/06/12 07:08:46;;;;;;;7.20;3.70;;;;;;;24.53;60.99;99135.75;4953997;29;20456;-76
2023/06/12 07:11:11;;;;;;;5.85;3.45;;;;;;;24.51;60.99;99137.69;4954379;29;20039;-76
2023/06/12 07:13:38;;;;;;;6.53;3.67;;;;;;;24.51;60.93;99140.38;4953650;29;20085;-77
2023/06/12 07:16:04;;;;;;;6.95;3.17;;;;;;;24.50;60.94;99141.34;4954323;28;20062;-76
2023/06/12 07:18:29;;;;;;;7.53;4.03;;;;;;;24.49;60.92;99134.28;4954196;28;20055;-76
2023/06/12 07:20:55;;;;;;;8.35;4.88;;;;;;;24.49;60.83;99134.28;4954283;28;20035;-77
2023/06/12 07:23:20;;;;;;;6.90;4.35;;;;;;;24.47;61.02;99125.56;4953965;28;20101;-77
2023/06/12 07:25:46;;;;;;;7.07;3.42;;;;;;;24.47;61.16;99133.56;4954146;29;20050;-76
2023/06/12 07:28:11;;;;;;;6.55;3.83;;;;;;;24.48;60.92;99130.78;4953854;29;20090;-76
2023/06/12 07:30:37;;;;;;;7.63;3.55;;;;;;;24.47;61.09;99125.56;4936805;28;20027;-77
2023/06/12 07:33:02;;;;;;;9.02;3.75;;;;;;;24.48;60.80;99124.59;4954283;29;20054;-76
2023/06/12 07:35:28;;;;;;;7.35;3.92;;;;;;;24.49;60.76;99128.97;4954030;29;20035;-76
2023/06/12 07:37:53;;;;;;;6.32;3.50;;;;;;;24.45;60.93;99123.03;4953762;29;20027;-77
2023/06/12 07:40:18;;;;;;;6.10;3.83;;;;;;;24.44;61.11;99126.66;4954175;29;20031;-76
2023/06/12 07:42:44;;;;;;;7.68;3.65;;;;;;;24.46;60.72;99123.88;4953457;29;20558;-76
2023/06/12 07:45:10;;;;;;;6.45;3.83;;;;;;;24.45;60.95;99124.88;4953770;28;20038;-76
2023/06/12 07:47:35;;;;;;;6.70;4.10;;;;;;;24.46;60.90;99134.56;4953865;28;20058;-76
2023/06/12 07:50:01;;;;;;;7.68;4.43;;;;;;;24.44;61.06;99128.50;4953449;28;20035;-76
2023/06/12 07:52:27;;;;;;;7.25;4.30;;;;;;;24.42;60.89;99123.28;4953887;29;20403;-76
2023/06/12 07:54:52;;;;;;;8.52;4.40;;;;;;;24.42;61.01;99117.09;4953669;29;20031;-76
2023/06/12 07:57:18;;;;;;;6.47;4.35;;;;;;;24.40;60.92;99107.41;4953240;29;20130;-77
2023/06/12 07:59:44;;;;;;;7.63;4.10;;;;;;;24.40;61.22;99120.75;4953702;29;20035;-76
2023/06/12 08:02:10;;;;;;;6.57;4.40;;;;;;;24.43;60.99;99118.78;4953739;29;20054;-76
2023/06/12 08:04:40;;;;;;;6.63;4.25;;;;;;;24.39;61.37;99123.53;4956768;28;20122;-76
2023/06/12 08:07:06;;;;;;;7.47;4.45;;;;;;;24.42;61.07;99122.44;4956034;29;20063;-76
2023/06/12 08:09:32;;;;;;;8.85;4.50;;;;;;;24.42;61.28;99125.09;4957302;28;20037;-76
2023/06/12 08:11:57;;;;;;;7.60;4.47;;;;;;;24.43;61.27;99124.13;4956566;28;20108;-76
2023/06/12 08:14:23;;;;;;;7.80;4.45;;;;;;;24.37;61.44;99131.63;4957305;29;20038;-77
2023/06/12 08:16:49;;;;;;;6.47;4.03;;;;;;;24.38;61.45;99133.38;4956776;28;20111;-76
2023/06/12 08:19:14;;;;;;;9.05;4.32;;;;;;;24.38;61.56;99141.34;4957156;28;20028;-76
2023/06/12 08:21:40;;;;;;;7.38;4.13;;;;;;;24.38;61.60;99133.38;4955806;28;20086;-76
2023/06/12 08:24:10;;;;;;;8.77;4.25;;;;;;;24.38;61.09;99136.03;4957027;28;20453;-76
2023/06/12 08:26:35;;;;;;;7.80;4.38;;;;;;;24.40;61.62;99141.22;4956522;29;20039;-75
2023/06/12 08:29:01;;;;;;;7.10;4.10;;;;;;;24.43;61.36;99148.13;4956975;29;20075;-76
2023/06/12 08:31:26;;;;;;;8.02;4.47;;;;;;;24.41;61.56;99145.59;4956841;28;20039;-76
2023/06/12 08:33:52;;;;;;;8.43;4.20;;;;;;;24.39;61.48;99148.38;4957031;29;20468;-76
2023/06/12 08:36:17;;;;;;;8.55;4.38;;;;;;;24.42;61.51;99139.28;4956915;29;20530;-76
2023/06/12 08:38:43;;;;;;;8.85;4.95;;;;;;;24.40;61.45;99144.75;4956809;29;20031;-76
2023/06/12 08:41:08;;;;;;;8.77;5.15;;;;;;;24.38;61.63;99144.03;4956765;29;20027;-76
2023/06/12 08:43:34;;;;;;;8.43;4.40;;;;;;;24.39;61.64;99142.19;4956773;29;20032;-77
2023/06/12 08:46:06;;;;;;;7.78;3.97;;;;;;;24.40;61.33;99138.53;4956679;28;20492;-76
2023/06/12 08:48:32;;;;;;;6.47;3.92;;;;;;;24.42;61.35;99138.44;4955357;29;20030;-77
2023/06/12 08:51:00;;;;;;;8.02;4.40;;;;;;;24.42;61.59;99141.09;4956597;28;20035;-77
2023/06/12 08:53:27;;;;;;;7.82;4.78;;;;;;;24.39;61.67;99137.72;4956469;28;20056;-77
2023/06/12 08:55:55;;;;;;;7.22;4.25;;;;;;;24.42;61.57;99138.44;4956359;29;20058;-76
2023/06/12 08:58:21;;;;;;;8.52;4.32;;;;;;;24.40;61.56;99142.06;4956284;29;20139;-77
2023/06/12 09:00:47;;;;;;;9.00;4.50;;;;;;;24.43;61.41;99140.97;4956451;29;20031;-77
2023/06/12 09:03:14;;;;;;;7.82;3.72;;;;;;;24.42;61.57;99143.75;4956574;29;20430;-77
2023/06/12 09:05:40;;;;;;;6.78;3.63;;;;;;;24.43;61.44;99145.44;4956191;29;20039;-77
2023/06/12 09:08:06;;;;;;;4.85;3.55;;;;;;;24.40;61.68;99141.22;4956083;28;20405;-77
2023/06/12 09:10:33;;;;;;;6.93;3.85;;;;;;;24.44;61.73;99144.50;4956237;28;20030;-76
2023/06/12 09:13:01;;;;;;;6.88;4.18;;;;;;;24.43;61.64;99140.97;4956340;28;20030;-76
2023/06/12 09:15:27;;;;;;;5.90;4.10;;;;;;;24.45;61.77;99143.53;4955422;28;20043;-76
2023/06/12 09:17:55;;;;;;;7.78;4.53;;;;;;;24.43;61.52;99137.44;4956174;29;20123;-77
2023/06/12 09:20:33;;;;;;;7.00;4.20;;;;;;;24.44;61.70;99141.84;4938989;29;20531;-77
2023/06/12 09:23:02;;;;;;;7.53;4.50;;;;;;;24.43;61.84;99143.66;4955923;29;20086;-77
2023/06/12 09:25:39;;;;;;;7.40;3.80;;;;;;;24.44;61.91;99145.34;4956055;29;20039;-77
2023/06/12 09:28:07;;;;;;;6.93;4.45;;;;;;;24.44;61.73;99142.66;4956113;28;20035;-77
2023/06/12 09:30:33;;;;;;;7.07;3.92;;;;;;;24.46;61.84;99145.22;4955836;28;20023;-77
2023/06/12 09:33:00;;;;;;;7.15;4.20;;;;;;;24.45;61.86;99141.69;4956034;28;20042;-76
2023/06/12 09:35:26;;;;;;;6.32;4.18;;;;;;;24.46;61.80;99140.72;4955598;29;20031;-77
2023/06/12 09:37:51;;;;;;;6.00;4.28;;;;;;;24.48;61.51;99132.59;4955393;29;20019;-76
2023/06/12 09:40:17;;;;;;;7.68;4.35;;;;;;;24.47;61.46;99134.44;4955737;29;20031;-80
2023/06/12 09:42:42;;;;;;;7.85;4.28;;;;;;;24.49;61.83;99128.97;4955796;29;20082;-77
2023/06/12 09:45:16;;;;;;;7.38;3.70;;;;;;;24.46;61.89;99129.22;4955569;29;20166;-77
2023/06/12 09:47:42;;;;;;;7.05;3.95;;;;;;;24.49;61.71;99128.97;4955456;29;20030;-77
2023/06/12 09:50:09;;;;;;;7.13;4.60;;;;;;;24.51;61.48;99132.38;4955404;28;20117;-77
2023/06/12 09:52:36;;;;;;;6.45;3.97;;;;;;;24.49;61.20;99134.28;4955008;28;20032;-77
2023/06/12 09:55:05;;;;;;;6.70;4.25;;;;;;;24.50;61.39;99130.69;4955307;29;20067;-77
2023/06/12 09:57:35;;;;;;;7.28;4.32;;;;;;;24.50;61.49;99131.50;4955375;29;20067;-77
2023/06/12 10:00:02;;;;;;;6.93;4.22;;;;;;;24.50;61.22;99128.00;4937894;29;20059;-77
2023/06/12 10:02:28;;;;;;;6.90;3.80;;;;;;;24.50;61.08;99120.84;4955285;29;20435;-77
2023/06/12 10:05:05;;;;;;;7.55;3.85;;;;;;;24.49;61.09;99124.47;4955338;29;20031;-77
2023/06/12 10:07:40;;;;;;;7.18;4.38;;;;;;;24.50;61.41;99120.00;4954914;29;20027;-77
2023/06/12 10:10:07;;;;;;;8.00;4.05;;;;;;;24.51;61.29;99117.19;4955186;29;20023;-77
2023/06/12 10:12:35;;;;;;;7.28;4.45;;;;;;;24.52;61.41;99120.72;4955180;29;20165;-77
2023/06/12 10:15:03;;;;;;;5.82;4.07;;;;;;;24.51;61.20;99117.19;4955172;28;20023;-77
2023/06/12 10:17:29;;;;;;;9.48;4.85;;;;;;;24.51;61.40;99114.53;4954980;28;20710;-77
2023/06/12 10:19:56;;;;;;;9.15;4.93;;;;;;;24.52;61.47;99112.72;4954883;28;20039;-77
2023/06/12 10:22:22;;;;;;;8.13;4.10;;;;;;;24.54;61.37;99113.44;4954620;28;20098;-77
2023/06/12 10:24:48;;;;;;;5.88;3.75;;;;;;;24.55;61.17;99112.44;4954616;29;20506;-77
2023/06/12 10:27:15;;;;;;;6.65;3.92;;;;;;;24.55;61.05;99104.44;4953760;28;20077;-76
2023/06/12 10:29:41;;;;;;;6.75;3.42;;;;;;;24.55;61.37;99107.13;4954441;29;20035;-77
2023/06/12 10:32:08;;;;;;;7.25;4.28;;;;;;;24.54;61.12;99095.63;4954593;28;20031;-77
2023/06/12 10:34:45;;;;;;;5.78;3.63;;;;;;;24.55;61.09;99096.44;4954658;29;20042;-77
2023/06/12 10:37:24;;;;;;;5.28;3.88;;;;;;;24.56;60.98;99095.50;4954634;29;20027;-77
2023/06/12 10:40:11;;;;;;;7.47;3.90;;;;;;;24.57;60.92;99091.84;4954747;29;20110;-77
2023/06/12 10:42:42;;;;;;;5.63;3.60;;;;;;;24.58;60.84;99085.53;4954639;29;20404;-76
2023/06/12 10:45:24;;;;;;;6.47;3.90;;;;;;;24.58;60.78;99082.88;4954570;29;20043;-77
2023/06/12 10:48:02;;;;;;;6.57;3.80;;;;;;;24.58;60.88;99080.22;4954525;28;20042;-77
2023/06/12 10:50:48;;;;;;;7.05;4.45;;;;;;;24.59;60.85;99081.06;4953984;28;20039;-77
2023/06/12 10:53:20;;;;;;;6.63;4.10;;;;;;;24.60;61.04;99088.91;4952715;29;20050;-77
2023/06/12 10:55:46;;;;;;;6.18;4.30;;;;;;;24.59;60.83;99076.56;4954367;28;20043;-77
2023/06/12 10:58:14;;;;;;;5.43;3.72;;;;;;;24.61;60.68;99084.44;4954222;29;20395;-77
2023/06/12 11:00:43;;;;;;;7.78;4.47;;;;;;;24.60;60.53;99075.56;4954156;29;20038;-77
2023/06/12 11:03:11;;;;;;;6.82;4.22;;;;;;;24.60;60.87;99078.25;4954353;29;20035;-77
2023/06/12 11:05:38;;;;;;;7.75;4.13;;;;;;;24.61;60.66;99085.31;4953943;29;20089;-77
2023/06/12 11:08:07;;;;;;;6.80;4.60;;;;;;;24.62;60.69;99086.13;4954117;28;20055;-77
2023/06/12 11:10:34;;;;;;;7.50;4.68;;;;;;;24.61;60.67;99079.97;4954418;28;20034;-76
2023/06/12 11:13:00;;;;;;;6.65;4.35;;;;;;;24.63;60.64;99078.00;4954504;28;20030;-77
2023/06/12 11:15:26;;;;;;;7.10;4.70;;;;;;;24.63;60.84;99072.69;4954224;28;20033;-77
2023/06/12 11:17:53;;;;;;;6.38;4.43;;;;;;;24.65;60.52;99069.88;4954179;28;20031;-77
2023/06/12 11:20:20;;;;;;;6.43;5.18;;;;;;;24.64;60.40;99074.34;4953867;29;20019;-77
2023/06/12 11:22:47;;;;;;;6.82;4.72;;;;;;;24.66;60.57;99077.75;4954130;29;20035;-76
2023/06/12 11:25:13;;;;;;;7.32;4.60;;;;;;;24.66;60.57;99076.91;4936749;29;20086;-77
2023/06/12 11:27:38;;;;;;;7.43;4.95;;;;;;;24.67;60.77;99078.59;4954075;29;20019;-77
2023/06/12 11:30:11;;;;;;;6.93;4.43;;;;;;;24.66;60.68;99072.41;4954030;28;20027;-77
2023/06/12 11:32:37;;;;;;;6.68;4.45;;;;;;;24.67;60.76;99065.25;4953771;28;20033;-76
2023/06/12 11:35:04;;;;;;;6.30;4.57;;;;;;;24.67;60.74;99067.94;4953638;29;20103;-76